Latest Coastal Weather Observations for Wyndham Airport

IDD60701

Issued at 5:51 am CST Wednesday 2 September 2015 (issued every 10 minutes, with the page automatically refreshed every 10 minutes)

About coastal observations | Map of coastal stations | Coastal observations for NT | Marine services | Other Formats
Station Details ID: 001006 Name: WYNDHAM AERO Lat: -15.51 Lon: 128.15 Height: 3.8 m
Data from the previous 72 hours. | See also: Recent months at Wyndham Airport
Date/Time
CST
Temp

°C
Wind Pressure Rain
since 9am
mm
Weather Cloud Vis
km
Sea
Height
m
Swell
Dir
 
Speed
knots
Gust
knots
hPa Trend Height
m
Period
s
Dir
02/05:30am 23.1 NNW 6 8 1012.8 - 0.0 - - - - - - -
02/05:00am 23.5 SW 4 5 1012.9 - 0.0 - - - - - - -
02/04:30am 25.0 W 8 9 1012.9 - 0.0 - - - - - - -
02/04:00am 25.4 WNW 8 9 1012.8 - 0.0 - - - - - - -
02/03:30am 25.0 WNW 8 9 1012.8 - 0.0 - - - - - - -
02/03:00am 25.9 WSW 7 9 1012.8 - 0.0 - - - - - - -
02/02:30am 26.0 NW 8 9 1013.0 - 0.0 - - - - - - -
02/02:00am 27.3 WNW 9 11 1013.0 - 0.0 - - - - - - -
02/01:30am 28.4 NW 10 13 1013.1 - 0.0 - - - - - - -
02/01:00am 28.5 NNW 9 13 1013.3 - 0.0 - - - - - - -
02/12:30am 28.6 NW 8 11 1013.6 - 0.0 - - - - - - -
02/12:00am 28.9 NW 7 9 1013.6 - 0.0 - - - - - - -
 
Date/Time
CST
Temp

°C
Wind Pressure Rain
since 9am
mm
Weather Cloud Vis
km
Sea
Height
m
Swell
Dir
 
Speed
knots
Gust
knots
hPa Trend Height
m
Period
s
Dir
01/11:30pm 29.1 NNW 8 12 1013.2 - 0.0 - - - - - - -
01/11:00pm 28.6 NNW 8 11 1013.1 - 0.0 - - - - - - -
01/10:30pm 28.7 N 10 13 1013.1 - 0.0 - - - - - - -
01/10:00pm 28.6 N 9 13 1012.9 - 0.0 - - - - - - -
01/09:30pm 28.8 N 10 14 1012.4 - 0.0 - - - - - - -
01/09:00pm 29.0 N 11 17 1012.1 - 0.0 - - - - - - -
01/08:30pm 28.8 N 11 17 1011.8 - 0.0 - - - - - - -
01/08:00pm 28.8 N 12 18 1011.2 - 0.0 - - - - - - -
01/07:30pm 29.2 N 14 21 1010.6 - 0.0 - - - - - - -
01/07:00pm 29.6 N 16 24 1010.2 - 0.0 - - - - - - -
01/06:30pm 30.5 N 17 23 1009.9 - 0.0 - - - - - - -
01/06:00pm 31.1 N 18 25 1009.7 - 0.0 - - - - - - -
01/05:30pm 32.2 N 19 25 1009.6 - 0.0 - - - - - - -
01/05:00pm 33.8 N 16 22 1009.4 - 0.0 - - - - - - -
01/04:30pm 34.6 N 14 19 1009.4 - 0.0 - - - - - - -
01/04:00pm 35.6 N 14 19 1009.4 - 0.0 - - - - - - -
01/03:30pm 36.4 NNW 11 17 1009.6 - 0.0 - - - - - - -
01/03:00pm 36.1 NNW 6 12 1009.8 - 0.0 - - - - - - -
01/02:30pm 35.8 NW 8 14 1010.5 - 0.0 - - - - - - -
01/02:00pm 35.9 NW 9 13 1011.0 - 0.0 - - - - - - -
01/01:30pm 35.3 WNW 7 12 1011.5 - 0.0 - - - - - - -
01/01:00pm 35.1 W 8 12 1012.0 - 0.0 - - - - - - -
01/12:30pm 34.4 WSW 7 12 1012.5 - 0.0 - - - - - - -
01/12:00pm 33.7 WSW 9 12 1012.9 - 0.0 - - - - - - -
01/11:30am 33.6 WSW 8 11 1013.3 - 0.0 - - - - - - -
01/11:00am 32.5 W 6 10 1013.6 - 0.0 - - - - - - -
01/10:30am 31.4 W 6 9 1013.8 - 0.0 - - - - - - -
01/10:00am 31.2 W 9 12 1013.9 - 0.0 - - - - - - -
01/09:30am 30.3 W 9 11 1014.0 - 0.0 - - - - - - -
01/09:00am 29.6 W 7 11 1013.7 - 0.0 - - - - - - -
01/08:30am 28.3 WNW 7 9 1013.5 - 0.0 - - - - - - -
01/08:00am 27.2 WNW 7 8 1013.1 - 0.0 - - - - - - -
01/07:30am 25.3 WNW 7 8 1012.7 - 0.0 - - - - - - -
01/07:00am 24.4 WNW 6 8 1012.3 - 0.0 - - - - - - -
01/06:30am 23.0 NE 1 3 1012.0 - 0.0 - - - - - - -
01/06:00am 22.5 E 5 5 1011.8 - 0.0 - - - - - - -
01/05:30am 22.9 SSW 1 5 1011.7 - 0.0 - - - - - - -
01/05:00am 23.6 CALM 0 0 1011.5 - 0.0 - - - - - - -
01/04:30am 23.5 CALM 0 0 1011.6 - 0.0 - - - - - - -
01/04:00am 23.8 SE 3 4 1011.6 - 0.0 - - - - - - -
01/03:30am 24.1 E 2 5 1011.6 - 0.0 - - - - - - -
01/03:00am 24.4 CALM 0 3 1011.7 - 0.0 - - - - - - -
01/02:30am 24.6 CALM 0 0 1012.0 - 0.0 - - - - - - -
01/02:00am 24.4 ESE 5 5 1012.2 - 0.0 - - - - - - -
01/01:30am 25.1 E 5 7 1012.6 - 0.0 - - - - - - -
01/01:00am 25.6 ESE 5 7 1012.9 - 0.0 - - - - - - -
01/12:30am 26.0 E 5 6 1013.1 - 0.0 - - - - - - -
01/12:00am 27.3 ESE 4 5 1013.4 - 0.0 - - - - - - -
 
Date/Time
CST
Temp

°C
Wind Pressure Rain
since 9am
mm
Weather Cloud Vis
km
Sea
Height
m
Swell
Dir
 
Speed
knots
Gust
knots
hPa Trend Height
m
Period
s
Dir
31/11:30pm 27.8 ESE 5 6 1013.4 - 0.0 - - - - - - -
31/11:00pm 28.5 E 4 6 1013.4 - 0.0 - - - - - - -
31/10:30pm 28.6 ESE 7 8 1013.3 - 0.0 - - - - - - -
31/10:00pm 29.6 NNE 4 7 1013.2 - 0.0 - - - - - - -
31/09:30pm 29.5 N 6 11 1013.0 - 0.0 - - - - - - -
31/09:00pm 29.2 N 12 16 1012.5 - 0.0 - - - - - - -
31/08:30pm 29.2 N 15 21 1012.1 - 0.0 - - - - - - -
31/08:00pm 29.5 N 14 19 1011.7 - 0.0 - - - - - - -
31/07:30pm 30.1 N 15 20 1011.4 - 0.0 - - - - - - -
31/07:00pm 30.8 N 13 19 1011.3 - 0.0 - - - - - - -
31/06:30pm 31.7 N 14 19 1011.1 - 0.0 - - - - - - -
31/06:00pm 32.7 N 12 15 1010.9 - 0.0 - - - - - - -
31/05:30pm 34.0 N 12 17 1010.6 - 0.0 - - - - - - -
31/05:00pm 34.6 N 11 15 1010.4 - 0.0 - - - - - - -
31/04:30pm 35.0 N 14 19 1010.4 - 0.0 - - - - - - -
31/04:00pm 35.4 NNW 13 17 1010.5 - 0.0 - - - - - - -
31/03:30pm 36.9 NNW 12 18 1010.7 - 0.0 - - - - - - -
31/03:00pm 36.6 W 11 15 1011.1 - 0.0 - - - - - - -
31/02:30pm 36.1 W 9 13 1011.5 - 0.0 - - - - - - -
31/02:00pm 35.2 W 8 12 1012.0 - 0.0 - - - - - - -
31/01:30pm 36.0 NE 5 11 1012.4 - 0.0 - - - - - - -
31/01:00pm 35.0 N 6 11 1013.0 - 0.0 - - - - - - -
31/12:30pm 35.3 E 5 9 1013.5 - 0.0 - - - - - - -
31/12:00pm 34.3 N 5 7 1014.1 - 0.0 - - - - - - -
31/11:30am 33.3 ENE 6 10 1014.7 - 0.0 - - - - - - -
31/11:00am 33.0 E 5 11 1015.0 - 0.0 - - - - - - -
31/10:30am 32.1 SE 6 9 1015.1 - 0.0 - - - - - - -
31/10:00am 31.1 SE 5 7 1015.1 - 0.0 - - - - - - -
31/09:30am 30.0 ESE 5 7 1014.9 - 0.0 - - - - - - -
31/09:00am 29.0 ESE 3 4 1014.7 - 0.0 - - - - - - -
31/08:30am 27.3 E 7 9 1014.6 - 0.0 - - - - - - -
31/08:00am 25.6 ESE 7 10 1014.3 - 0.0 - - - - - - -
31/07:30am 25.0 ESE 9 11 1014.0 - 0.0 - - - - - - -
31/07:00am 23.5 CALM 0 0 1013.6 - 0.0 - - - - - - -
31/06:30am 24.1 CALM 0 0 1013.2 - 0.0 - - - - - - -
31/06:00am 24.1 W 3 3 1012.8 - 0.0 - - - - - - -
31/05:30am 23.6 W 4 5 1012.7 - 0.0 - - - - - - -
31/05:00am 23.2 NW 6 6 1012.7 - 0.0 - - - - - - -
31/04:30am 24.0 NW 4 5 1012.8 - 0.0 - - - - - - -
31/04:00am 23.3 NW 3 4 1013.1 - 0.0 - - - - - - -
31/03:30am 23.5 WSW 3 4 1013.2 - 0.0 - - - - - - -
31/03:00am 23.6 SSW 4 6 1013.3 - 0.0 - - - - - - -
31/02:30am 23.9 WSW 4 5 1013.5 - 0.0 - - - - - - -
31/02:00am 24.1 WNW 4 4 1013.6 - 0.0 - - - - - - -
31/01:30am 24.6 NNW 2 4 1013.8 - 0.0 - - - - - - -
31/01:00am 25.4 E 1 3 1014.0 - 0.0 - - - - - - -
31/12:30am 25.2 E 4 5 1014.3 - 0.0 - - - - - - -
31/12:00am 25.5 ESE 6 7 1014.5 - 0.0 - - - - - - -
 
Date/Time
CST
Temp

°C
Wind Pressure Rain
since 9am
mm
Weather Cloud Vis
km
Sea
Height
m
Swell
Dir
 
Speed
knots
Gust
knots
hPa Trend Height
m
Period
s
Dir
30/11:30pm 26.4 CALM 0 0 1014.5 - 0.0 - - - - - - -
30/11:00pm 27.7 SW 4 6 1014.6 - 0.0 - - - - - - -
30/10:30pm 28.0 SW 5 7 1014.6 - 0.0 - - - - - - -
30/10:00pm 28.3 WNW 5 7 1014.3 - 0.0 - - - - - - -
30/09:30pm 29.5 NW 6 8 1014.1 - 0.0 - - - - - - -
30/09:00pm 30.2 N 6 9 1013.9 - 0.0 - - - - - - -
30/08:30pm 30.6 N 11 15 1013.3 - 0.0 - - - - - - -
30/08:00pm 30.8 N 11 15 1013.2 - 0.0 - - - - - - -
30/07:30pm 31.1 N 12 15 1013.1 - 0.0 - - - - - - -
30/07:00pm 31.5 N 12 16 1012.8 - 0.0 - - - - - - -
30/06:30pm 32.4 N 13 17 1012.6 - 0.0 - - - - - - -
30/06:00pm 33.2 N 14 19 1012.2 - 0.0 - - - - - - -
30/05:30pm 33.3 N 12 16 1012.1 - 0.0 - - - - - - -
30/05:00pm 35.0 NNW 10 14 1011.9 - 0.0 - - - - - - -
30/04:30pm 35.5 WNW 6 11 1011.9 - 0.0 - - - - - - -
30/04:00pm 35.1 WNW 12 18 1012.0 - 0.0 - - - - - - -
30/03:30pm 33.8 NNE 4 9 1012.4 - 0.0 - - - - - - -
30/03:00pm 34.2 ESE 6 11 1012.6 - 0.0 - - - - - - -
30/02:30pm 33.5 ENE 6 11 1013.1 - 0.0 - - - - - - -
30/02:00pm 34.3 NNE 6 12 1013.5 - 0.0 - - - - - - -
30/01:30pm 34.5 ENE 7 12 1014.3 - 0.0 - - - - - - -
30/01:00pm 33.6 ENE 8 12 1014.8 - 0.0 - - - - - - -
30/12:30pm 33.2 NE 7 14 1015.4 - 0.0 - - - - - - -
30/12:00pm 33.5 ENE 9 17 1016.0 - 0.0 - - - - - - -
30/11:30am 31.3 ENE 9 12 1016.8 - 0.0 - - - - - - -
30/11:00am 30.5 ENE 8 11 1017.1 - 0.0 - - - - - - -
30/10:30am 30.2 ESE 9 13 1017.2 - 0.0 - - - - - - -
30/10:00am 28.7 ESE 7 11 1017.2 - 0.0 - - - - - - -
30/09:30am 27.9 ESE 6 8 1017.1 - 0.0 - - - - - - -
30/09:00am 27.0 SE 7 8 1016.8 - 0.0 - - - - - - -
30/08:30am 26.5 ESE 5 5 1016.5 - 0.0 - - - - - - -
30/08:00am 25.2 SE 5 6 1016.2 - 0.0 - - - - - - -
30/07:30am 24.6 E 5 6 1015.7 - 0.0 - - - - - - -

Other Formats:

Comma delimited format used in spreadsheet applications
http://www.bom.gov.au/fwo/IDD60701/IDD60701.95214.axf

JavaScript Object Notation format (JSON) in row-major order
http://www.bom.gov.au/fwo/IDD60701/IDD60701.95214.json